sensor_id;sensor_type;location;lat;lon;timestamp;temperature;humidity
67942;SHT31;54731;42.600;23.476;2024-01-16T00:00:14;1.75;79.27
67942;SHT31;54731;42.600;23.476;2024-01-16T00:02:39;1.75;80.04
67942;SHT31;54731;42.600;23.476;2024-01-16T00:05:05;1.74;81.05
67942;SHT31;54731;42.600;23.476;2024-01-16T00:07:30;1.70;79.70
67942;SHT31;54731;42.600;23.476;2024-01-16T00:09:55;1.74;79.66
67942;SHT31;54731;42.600;23.476;2024-01-16T00:12:21;1.65;80.02
67942;SHT31;54731;42.600;23.476;2024-01-16T00:14:46;1.71;80.79
67942;SHT31;54731;42.600;23.476;2024-01-16T00:17:11;1.79;81.36
67942;SHT31;54731;42.600;23.476;2024-01-16T00:19:37;1.84;81.40
67942;SHT31;54731;42.600;23.476;2024-01-16T00:22:02;1.85;81.61
67942;SHT31;54731;42.600;23.476;2024-01-16T00:24:28;1.91;82.09
67942;SHT31;54731;42.600;23.476;2024-01-16T00:26:53;1.88;81.14
67942;SHT31;54731;42.600;23.476;2024-01-16T00:29:18;1.84;81.04
67942;SHT31;54731;42.600;23.476;2024-01-16T00:31:43;1.73;79.43
67942;SHT31;54731;42.600;23.476;2024-01-16T00:34:09;1.67;78.93
67942;SHT31;54731;42.600;23.476;2024-01-16T00:36:34;1.64;79.08
67942;SHT31;54731;42.600;23.476;2024-01-16T00:38:59;1.64;78.65
67942;SHT31;54731;42.600;23.476;2024-01-16T00:41:25;1.53;78.06
67942;SHT31;54731;42.600;23.476;2024-01-16T00:43:50;1.57;78.44
67942;SHT31;54731;42.600;23.476;2024-01-16T00:46:15;1.40;78.40
67942;SHT31;54731;42.600;23.476;2024-01-16T00:48:41;1.43;78.43
67942;SHT31;54731;42.600;23.476;2024-01-16T00:51:06;1.34;78.50
67942;SHT31;54731;42.600;23.476;2024-01-16T00:53:31;1.37;79.05
67942;SHT31;54731;42.600;23.476;2024-01-16T00:55:57;1.20;77.95
67942;SHT31;54731;42.600;23.476;2024-01-16T00:58:23;1.09;78.57
67942;SHT31;54731;42.600;23.476;2024-01-16T01:00:48;1.16;78.41
67942;SHT31;54731;42.600;23.476;2024-01-16T01:03:14;1.16;78.40
67942;SHT31;54731;42.600;23.476;2024-01-16T01:05:39;1.13;78.82
67942;SHT31;54731;42.600;23.476;2024-01-16T01:08:05;1.13;79.37
67942;SHT31;54731;42.600;23.476;2024-01-16T01:10:30;1.17;79.49
67942;SHT31;54731;42.600;23.476;2024-01-16T01:12:56;1.24;78.83
67942;SHT31;54731;42.600;23.476;2024-01-16T01:15:21;1.24;78.61
67942;SHT31;54731;42.600;23.476;2024-01-16T01:17:49;1.26;79.04
67942;SHT31;54731;42.600;23.476;2024-01-16T01:20:14;1.24;79.14
67942;SHT31;54731;42.600;23.476;2024-01-16T01:22:40;1.24;78.88
67942;SHT31;54731;42.600;23.476;2024-01-16T01:25:05;1.29;78.88
67942;SHT31;54731;42.600;23.476;2024-01-16T01:27:31;1.26;78.88
67942;SHT31;54731;42.600;23.476;2024-01-16T01:29:56;1.30;78.93
67942;SHT31;54731;42.600;23.476;2024-01-16T01:32:22;1.33;78.81
67942;SHT31;54731;42.600;23.476;2024-01-16T01:34:47;1.41;77.99
67942;SHT31;54731;42.600;23.476;2024-01-16T01:37:13;1.46;78.04
67942;SHT31;54731;42.600;23.476;2024-01-16T01:39:38;1.46;78.39
67942;SHT31;54731;42.600;23.476;2024-01-16T01:42:03;1.51;78.80
67942;SHT31;54731;42.600;23.476;2024-01-16T01:44:29;1.60;79.49
67942;SHT31;54731;42.600;23.476;2024-01-16T01:46:54;1.78;80.44
67942;SHT31;54731;42.600;23.476;2024-01-16T01:49:20;1.97;80.56
67942;SHT31;54731;42.600;23.476;2024-01-16T01:51:46;2.02;80.75
67942;SHT31;54731;42.600;23.476;2024-01-16T01:54:13;2.14;81.43
67942;SHT31;54731;42.600;23.476;2024-01-16T01:56:39;2.16;81.41
67942;SHT31;54731;42.600;23.476;2024-01-16T01:59:06;2.18;81.44
67942;SHT31;54731;42.600;23.476;2024-01-16T02:01:34;2.19;82.01
67942;SHT31;54731;42.600;23.476;2024-01-16T02:04:01;2.12;80.56
67942;SHT31;54731;42.600;23.476;2024-01-16T02:06:27;2.06;80.35
67942;SHT31;54731;42.600;23.476;2024-01-16T02:08:52;2.09;80.22
67942;SHT31;54731;42.600;23.476;2024-01-16T02:11:18;2.05;80.79
67942;SHT31;54731;42.600;23.476;2024-01-16T02:13:43;2.14;81.82
67942;SHT31;54731;42.600;23.476;2024-01-16T02:18:44;2.22;82.01
67942;SHT31;54731;42.600;23.476;2024-01-16T02:21:09;2.21;81.88
67942;SHT31;54731;42.600;23.476;2024-01-16T02:23:35;2.16;82.95
67942;SHT31;54731;42.600;23.476;2024-01-16T02:26:01;2.16;83.38
67942;SHT31;54731;42.600;23.476;2024-01-16T02:28:27;2.21;83.33
67942;SHT31;54731;42.600;23.476;2024-01-16T02:30:53;2.24;83.17
67942;SHT31;54731;42.600;23.476;2024-01-16T02:33:18;2.24;83.27
67942;SHT31;54731;42.600;23.476;2024-01-16T02:35:44;2.26;83.99
67942;SHT31;54731;42.600;23.476;2024-01-16T02:38:09;2.32;84.21
67942;SHT31;54731;42.600;23.476;2024-01-16T02:40:34;2.40;84.48
67942;SHT31;54731;42.600;23.476;2024-01-16T02:42:59;2.38;84.43
67942;SHT31;54731;42.600;23.476;2024-01-16T02:45:25;2.36;84.54
67942;SHT31;54731;42.600;23.476;2024-01-16T02:47:50;2.39;84.75
67942;SHT31;54731;42.600;23.476;2024-01-16T02:50:15;2.43;84.79
67942;SHT31;54731;42.600;23.476;2024-01-16T02:52:41;2.42;85.12
67942;SHT31;54731;42.600;23.476;2024-01-16T02:55:07;2.39;85.15
67942;SHT31;54731;42.600;23.476;2024-01-16T02:57:32;2.42;85.69
67942;SHT31;54731;42.600;23.476;2024-01-16T02:59:57;2.43;85.54
67942;SHT31;54731;42.600;23.476;2024-01-16T03:02:23;2.48;85.58
67942;SHT31;54731;42.600;23.476;2024-01-16T03:04:48;2.50;85.90
67942;SHT31;54731;42.600;23.476;2024-01-16T03:07:13;2.50;85.92
67942;SHT31;54731;42.600;23.476;2024-01-16T03:09:38;2.48;85.85
67942;SHT31;54731;42.600;23.476;2024-01-16T03:12:04;2.50;85.81
67942;SHT31;54731;42.600;23.476;2024-01-16T03:14:29;2.43;85.79
67942;SHT31;54731;42.600;23.476;2024-01-16T03:16:55;2.54;85.99
67942;SHT31;54731;42.600;23.476;2024-01-16T03:19:20;2.70;85.78
67942;SHT31;54731;42.600;23.476;2024-01-16T03:21:45;2.81;85.56
67942;SHT31;54731;42.600;23.476;2024-01-16T03:24:11;2.80;85.43
67942;SHT31;54731;42.600;23.476;2024-01-16T03:26:36;2.87;85.53
67942;SHT31;54731;42.600;23.476;2024-01-16T03:29:01;2.96;85.37
67942;SHT31;54731;42.600;23.476;2024-01-16T03:31:27;3.01;85.30
67942;SHT31;54731;42.600;23.476;2024-01-16T03:33:52;3.03;85.19
67942;SHT31;54731;42.600;23.476;2024-01-16T03:36:17;3.08;85.18
67942;SHT31;54731;42.600;23.476;2024-01-16T03:38:43;3.05;85.21
67942;SHT31;54731;42.600;23.476;2024-01-16T03:41:08;3.01;85.24
67942;SHT31;54731;42.600;23.476;2024-01-16T03:43:35;3.03;85.29
67942;SHT31;54731;42.600;23.476;2024-01-16T03:46:01;3.07;85.04
67942;SHT31;54731;42.600;23.476;2024-01-16T03:48:26;3.01;85.11
67942;SHT31;54731;42.600;23.476;2024-01-16T03:50:51;3.07;85.22
67942;SHT31;54731;42.600;23.476;2024-01-16T03:53:17;2.97;85.48
67942;SHT31;54731;42.600;23.476;2024-01-16T03:55:42;2.93;85.60
67942;SHT31;54731;42.600;23.476;2024-01-16T03:58:07;2.91;85.50
67942;SHT31;54731;42.600;23.476;2024-01-16T04:00:32;2.87;85.50
67942;SHT31;54731;42.600;23.476;2024-01-16T04:02:58;2.87;85.60
67942;SHT31;54731;42.600;23.476;2024-01-16T04:05:23;2.80;85.63
67942;SHT31;54731;42.600;23.476;2024-01-16T04:07:48;2.75;85.83
67942;SHT31;54731;42.600;23.476;2024-01-16T04:10:14;2.66;85.64
67942;SHT31;54731;42.600;23.476;2024-01-16T04:12:39;2.60;85.65
67942;SHT31;54731;42.600;23.476;2024-01-16T04:15:05;2.57;85.58
67942;SHT31;54731;42.600;23.476;2024-01-16T04:17:30;2.50;85.50
67942;SHT31;54731;42.600;23.476;2024-01-16T04:19:55;2.46;85.65
67942;SHT31;54731;42.600;23.476;2024-01-16T04:22:21;2.38;85.81
67942;SHT31;54731;42.600;23.476;2024-01-16T04:24:46;2.32;85.88
67942;SHT31;54731;42.600;23.476;2024-01-16T04:27:11;2.28;85.98
67942;SHT31;54731;42.600;23.476;2024-01-16T04:29:37;2.21;85.72
67942;SHT31;54731;42.600;23.476;2024-01-16T04:32:02;2.16;85.40
67942;SHT31;54731;42.600;23.476;2024-01-16T04:34:28;2.16;85.26
67942;SHT31;54731;42.600;23.476;2024-01-16T04:36:53;2.14;84.92
67942;SHT31;54731;42.600;23.476;2024-01-16T04:39:18;2.08;84.63
67942;SHT31;54731;42.600;23.476;2024-01-16T04:41:43;1.99;84.88
67942;SHT31;54731;42.600;23.476;2024-01-16T04:44:09;1.94;85.03
67942;SHT31;54731;42.600;23.476;2024-01-16T04:46:34;1.95;84.87
67942;SHT31;54731;42.600;23.476;2024-01-16T04:48:59;1.89;84.75
67942;SHT31;54731;42.600;23.476;2024-01-16T04:51:25;1.88;84.78
67942;SHT31;54731;42.600;23.476;2024-01-16T04:53:50;1.93;84.33
67942;SHT31;54731;42.600;23.476;2024-01-16T04:56:15;1.85;84.60
67942;SHT31;54731;42.600;23.476;2024-01-16T04:58:41;1.81;84.63
67942;SHT31;54731;42.600;23.476;2024-01-16T05:01:06;1.84;84.23
67942;SHT31;54731;42.600;23.476;2024-01-16T05:03:31;1.78;84.30
67942;SHT31;54731;42.600;23.476;2024-01-16T05:05:56;1.82;84.07
67942;SHT31;54731;42.600;23.476;2024-01-16T05:08:22;1.84;83.63
67942;SHT31;54731;42.600;23.476;2024-01-16T05:10:47;1.78;83.38
67942;SHT31;54731;42.600;23.476;2024-01-16T05:13:13;1.71;83.53
67942;SHT31;54731;42.600;23.476;2024-01-16T05:15:38;1.74;83.71
67942;SHT31;54731;42.600;23.476;2024-01-16T05:18:03;1.71;83.57
67942;SHT31;54731;42.600;23.476;2024-01-16T05:20:29;1.64;83.51
67942;SHT31;54731;42.600;23.476;2024-01-16T05:22:54;1.67;83.56
67942;SHT31;54731;42.600;23.476;2024-01-16T05:25:20;1.70;83.01
67942;SHT31;54731;42.600;23.476;2024-01-16T05:27:45;1.64;83.05
67942;SHT31;54731;42.600;23.476;2024-01-16T05:30:10;1.60;83.02
67942;SHT31;54731;42.600;23.476;2024-01-16T05:32:36;1.60;83.26
67942;SHT31;54731;42.600;23.476;2024-01-16T05:35:01;1.57;83.18
67942;SHT31;54731;42.600;23.476;2024-01-16T05:37:26;1.58;83.35
67942;SHT31;54731;42.600;23.476;2024-01-16T05:39:52;1.54;83.25
67942;SHT31;54731;42.600;23.476;2024-01-16T05:42:17;1.54;83.02
67942;SHT31;54731;42.600;23.476;2024-01-16T05:44:42;1.55;82.36
67942;SHT31;54731;42.600;23.476;2024-01-16T05:47:08;1.50;81.86
67942;SHT31;54731;42.600;23.476;2024-01-16T05:49:33;1.50;81.42
67942;SHT31;54731;42.600;23.476;2024-01-16T05:51:58;1.51;81.09
67942;SHT31;54731;42.600;23.476;2024-01-16T05:54:24;1.47;81.14
67942;SHT31;54731;42.600;23.476;2024-01-16T05:56:49;1.43;81.31
67942;SHT31;54731;42.600;23.476;2024-01-16T05:59:14;1.37;81.57
67942;SHT31;54731;42.600;23.476;2024-01-16T06:01:40;1.46;81.53
67942;SHT31;54731;42.600;23.476;2024-01-16T06:04:05;1.46;81.09
67942;SHT31;54731;42.600;23.476;2024-01-16T06:06:30;1.50;80.71
67942;SHT31;54731;42.600;23.476;2024-01-16T06:08:55;1.48;79.61
67942;SHT31;54731;42.600;23.476;2024-01-16T06:11:31;1.43;79.39
67942;SHT31;54731;42.600;23.476;2024-01-16T06:13:57;1.41;79.08
67942;SHT31;54731;42.600;23.476;2024-01-16T06:16:22;1.29;79.30
67942;SHT31;54731;42.600;23.476;2024-01-16T06:18:47;1.26;79.69
67942;SHT31;54731;42.600;23.476;2024-01-16T06:21:12;1.31;79.71
67942;SHT31;54731;42.600;23.476;2024-01-16T06:23:38;1.30;79.66
67942;SHT31;54731;42.600;23.476;2024-01-16T06:26:03;1.27;79.77
67942;SHT31;54731;42.600;23.476;2024-01-16T06:28:28;1.17;80.25
67942;SHT31;54731;42.600;23.476;2024-01-16T06:30:54;1.17;80.42
67942;SHT31;54731;42.600;23.476;2024-01-16T06:33:19;1.17;80.46
67942;SHT31;54731;42.600;23.476;2024-01-16T06:35:44;1.17;80.43
67942;SHT31;54731;42.600;23.476;2024-01-16T06:38:10;1.13;80.52
67942;SHT31;54731;42.600;23.476;2024-01-16T06:40:35;1.17;80.61
67942;SHT31;54731;42.600;23.476;2024-01-16T06:43:00;1.20;80.38
67942;SHT31;54731;42.600;23.476;2024-01-16T06:45:26;1.20;80.46
67942;SHT31;54731;42.600;23.476;2024-01-16T06:47:51;1.15;80.34
67942;SHT31;54731;42.600;23.476;2024-01-16T06:50:16;1.20;80.56
67942;SHT31;54731;42.600;23.476;2024-01-16T06:52:41;1.20;80.47
67942;SHT31;54731;42.600;23.476;2024-01-16T06:55:07;1.17;80.38
67942;SHT31;54731;42.600;23.476;2024-01-16T06:57:32;1.19;80.40
67942;SHT31;54731;42.600;23.476;2024-01-16T06:59:57;1.17;80.55
67942;SHT31;54731;42.600;23.476;2024-01-16T07:02:23;1.20;80.29
67942;SHT31;54731;42.600;23.476;2024-01-16T07:04:48;1.16;79.66
67942;SHT31;54731;42.600;23.476;2024-01-16T07:07:13;1.16;79.82
67942;SHT31;54731;42.600;23.476;2024-01-16T07:09:39;1.20;79.22
67942;SHT31;54731;42.600;23.476;2024-01-16T07:12:04;1.07;78.24
67942;SHT31;54731;42.600;23.476;2024-01-16T07:14:30;1.03;78.38
67942;SHT31;54731;42.600;23.476;2024-01-16T07:16:56;1.04;78.02
67942;SHT31;54731;42.600;23.476;2024-01-16T07:19:21;1.00;77.63
67942;SHT31;54731;42.600;23.476;2024-01-16T07:21:46;0.95;76.98
67942;SHT31;54731;42.600;23.476;2024-01-16T07:24:12;0.85;77.29
67942;SHT31;54731;42.600;23.476;2024-01-16T07:26:37;0.85;77.58
67942;SHT31;54731;42.600;23.476;2024-01-16T07:29:02;0.95;77.57
67942;SHT31;54731;42.600;23.476;2024-01-16T07:31:28;0.96;77.52
67942;SHT31;54731;42.600;23.476;2024-01-16T07:33:53;0.90;77.55
67942;SHT31;54731;42.600;23.476;2024-01-16T07:36:18;0.83;77.74
67942;SHT31;54731;42.600;23.476;2024-01-16T07:38:43;0.83;77.82
67942;SHT31;54731;42.600;23.476;2024-01-16T07:41:09;0.88;77.94
67942;SHT31;54731;42.600;23.476;2024-01-16T07:43:34;0.86;78.05
67942;SHT31;54731;42.600;23.476;2024-01-16T07:45:59;0.83;78.03
67942;SHT31;54731;42.600;23.476;2024-01-16T07:48:25;0.79;78.08
67942;SHT31;54731;42.600;23.476;2024-01-16T07:50:50;0.80;78.09
67942;SHT31;54731;42.600;23.476;2024-01-16T07:53:16;0.78;77.54
67942;SHT31;54731;42.600;23.476;2024-01-16T07:55:42;0.80;77.82
67942;SHT31;54731;42.600;23.476;2024-01-16T07:58:07;0.89;77.76
67942;SHT31;54731;42.600;23.476;2024-01-16T08:00:33;0.92;77.51
67942;SHT31;54731;42.600;23.476;2024-01-16T08:02:58;0.93;77.75
67942;SHT31;54731;42.600;23.476;2024-01-16T08:05:23;0.92;77.31
67942;SHT31;54731;42.600;23.476;2024-01-16T08:07:49;0.92;77.26
67942;SHT31;54731;42.600;23.476;2024-01-16T08:10:14;0.96;77.17
67942;SHT31;54731;42.600;23.476;2024-01-16T08:12:41;0.97;77.26
67942;SHT31;54731;42.600;23.476;2024-01-16T08:15:06;1.02;76.77
67942;SHT31;54731;42.600;23.476;2024-01-16T08:17:32;1.06;76.84
67942;SHT31;54731;42.600;23.476;2024-01-16T08:19:57;1.09;77.10
67942;SHT31;54731;42.600;23.476;2024-01-16T08:22:22;1.10;77.20
67942;SHT31;54731;42.600;23.476;2024-01-16T08:24:47;1.16;76.56
67942;SHT31;54731;42.600;23.476;2024-01-16T08:27:13;1.09;76.70
67942;SHT31;54731;42.600;23.476;2024-01-16T08:29:38;1.10;77.00
67942;SHT31;54731;42.600;23.476;2024-01-16T08:32:04;1.12;77.09
67942;SHT31;54731;42.600;23.476;2024-01-16T08:34:29;1.17;76.85
67942;SHT31;54731;42.600;23.476;2024-01-16T08:36:54;1.07;77.23
67942;SHT31;54731;42.600;23.476;2024-01-16T08:39:20;1.07;77.46
67942;SHT31;54731;42.600;23.476;2024-01-16T08:41:45;1.12;76.74
67942;SHT31;54731;42.600;23.476;2024-01-16T08:44:10;1.17;76.39
67942;SHT31;54731;42.600;23.476;2024-01-16T08:46:35;1.12;76.56
67942;SHT31;54731;42.600;23.476;2024-01-16T08:49:01;1.13;76.50
67942;SHT31;54731;42.600;23.476;2024-01-16T08:51:26;1.15;76.86
67942;SHT31;54731;42.600;23.476;2024-01-16T08:53:51;1.10;76.50
67942;SHT31;54731;42.600;23.476;2024-01-16T08:56:17;1.07;76.45
67942;SHT31;54731;42.600;23.476;2024-01-16T08:58:42;1.04;76.49
67942;SHT31;54731;42.600;23.476;2024-01-16T09:01:07;1.04;76.05
67942;SHT31;54731;42.600;23.476;2024-01-16T09:03:33;0.99;76.29
67942;SHT31;54731;42.600;23.476;2024-01-16T09:05:59;1.00;76.10
67942;SHT31;54731;42.600;23.476;2024-01-16T09:08:26;1.00;76.05
67942;SHT31;54731;42.600;23.476;2024-01-16T09:10:51;0.95;75.59
67942;SHT31;54731;42.600;23.476;2024-01-16T09:13:17;0.90;75.91
67942;SHT31;54731;42.600;23.476;2024-01-16T09:15:42;0.93;76.32
67942;SHT31;54731;42.600;23.476;2024-01-16T09:18:07;0.95;75.61
67942;SHT31;54731;42.600;23.476;2024-01-16T09:20:33;0.90;75.65
67942;SHT31;54731;42.600;23.476;2024-01-16T09:22:58;0.95;75.93
67942;SHT31;54731;42.600;23.476;2024-01-16T09:25:23;0.99;75.72
67942;SHT31;54731;42.600;23.476;2024-01-16T09:27:48;0.96;76.08
67942;SHT31;54731;42.600;23.476;2024-01-16T09:30:14;1.00;76.03
67942;SHT31;54731;42.600;23.476;2024-01-16T09:32:39;1.07;75.43
67942;SHT31;54731;42.600;23.476;2024-01-16T09:35:05;1.03;75.00
67942;SHT31;54731;42.600;23.476;2024-01-16T09:37:30;1.07;75.38
67942;SHT31;54731;42.600;23.476;2024-01-16T09:39:56;1.12;75.06
67942;SHT31;54731;42.600;23.476;2024-01-16T09:42:21;1.13;75.02
67942;SHT31;54731;42.600;23.476;2024-01-16T09:44:48;1.16;74.64
67942;SHT31;54731;42.600;23.476;2024-01-16T09:47:15;1.17;74.46
67942;SHT31;54731;42.600;23.476;2024-01-16T09:49:42;1.22;74.40
67942;SHT31;54731;42.600;23.476;2024-01-16T09:52:07;1.19;74.29
67942;SHT31;54731;42.600;23.476;2024-01-16T09:54:33;1.27;73.46
67942;SHT31;54731;42.600;23.476;2024-01-16T09:56:59;1.27;73.26
67942;SHT31;54731;42.600;23.476;2024-01-16T09:59:26;1.26;73.72
67942;SHT31;54731;42.600;23.476;2024-01-16T10:01:54;1.22;73.74
67942;SHT31;54731;42.600;23.476;2024-01-16T10:04:19;1.30;73.55
67942;SHT31;54731;42.600;23.476;2024-01-16T10:06:45;1.30;73.60
67942;SHT31;54731;42.600;23.476;2024-01-16T10:09:10;1.31;72.90
67942;SHT31;54731;42.600;23.476;2024-01-16T10:11:36;1.36;72.88
67942;SHT31;54731;42.600;23.476;2024-01-16T10:14:02;1.39;72.65
67942;SHT31;54731;42.600;23.476;2024-01-16T10:19:20;1.40;72.64
67942;SHT31;54731;42.600;23.476;2024-01-16T10:21:45;1.43;72.27
67942;SHT31;54731;42.600;23.476;2024-01-16T10:24:11;1.57;72.35
67942;SHT31;54731;42.600;23.476;2024-01-16T10:26:37;1.61;71.90
67942;SHT31;54731;42.600;23.476;2024-01-16T10:29:03;1.55;72.33
67942;SHT31;54731;42.600;23.476;2024-01-16T10:31:29;1.54;71.64
67942;SHT31;54731;42.600;23.476;2024-01-16T10:33:54;1.57;71.87
67942;SHT31;54731;42.600;23.476;2024-01-16T10:36:20;1.74;71.79
67942;SHT31;54731;42.600;23.476;2024-01-16T10:38:45;1.77;71.39
67942;SHT31;54731;42.600;23.476;2024-01-16T10:41:13;1.84;71.27
67942;SHT31;54731;42.600;23.476;2024-01-16T10:43:39;1.86;71.29
67942;SHT31;54731;42.600;23.476;2024-01-16T10:46:17;1.81;71.04
67942;SHT31;54731;42.600;23.476;2024-01-16T10:48:44;1.93;70.85
67942;SHT31;54731;42.600;23.476;2024-01-16T10:51:18;2.04;70.81
67942;SHT31;54731;42.600;23.476;2024-01-16T10:53:45;2.16;70.81
67942;SHT31;54731;42.600;23.476;2024-01-16T10:56:10;2.26;69.57
67942;SHT31;54731;42.600;23.476;2024-01-16T10:58:36;2.45;68.76
67942;SHT31;54731;42.600;23.476;2024-01-16T11:01:05;2.53;67.86
67942;SHT31;54731;42.600;23.476;2024-01-16T11:03:46;2.61;67.85
67942;SHT31;54731;42.600;23.476;2024-01-16T11:06:14;2.75;67.44
67942;SHT31;54731;42.600;23.476;2024-01-16T11:08:41;2.84;66.49
67942;SHT31;54731;42.600;23.476;2024-01-16T11:11:08;3.00;66.86
67942;SHT31;54731;42.600;23.476;2024-01-16T11:13:35;3.10;66.25
67942;SHT31;54731;42.600;23.476;2024-01-16T11:16:03;3.14;66.68
67942;SHT31;54731;42.600;23.476;2024-01-16T11:18:30;3.04;65.37
67942;SHT31;54731;42.600;23.476;2024-01-16T11:20:56;3.03;66.33
67942;SHT31;54731;42.600;23.476;2024-01-16T11:23:22;3.03;65.63
67942;SHT31;54731;42.600;23.476;2024-01-16T11:25:47;2.99;65.58
67942;SHT31;54731;42.600;23.476;2024-01-16T11:28:13;3.03;66.32
67942;SHT31;54731;42.600;23.476;2024-01-16T11:30:40;3.14;65.01
67942;SHT31;54731;42.600;23.476;2024-01-16T11:33:05;3.10;65.43
67942;SHT31;54731;42.600;23.476;2024-01-16T11:35:37;3.07;65.55
67942;SHT31;54731;42.600;23.476;2024-01-16T11:38:08;3.15;65.15
67942;SHT31;54731;42.600;23.476;2024-01-16T11:40:35;3.17;64.97
67942;SHT31;54731;42.600;23.476;2024-01-16T11:46:07;3.17;63.90
67942;SHT31;54731;42.600;23.476;2024-01-16T11:48:33;3.23;64.18
67942;SHT31;54731;42.600;23.476;2024-01-16T11:50:58;3.20;63.39
67942;SHT31;54731;42.600;23.476;2024-01-16T12:01:14;3.31;63.57
67942;SHT31;54731;42.600;23.476;2024-01-16T12:03:39;3.17;64.13
67942;SHT31;54731;42.600;23.476;2024-01-16T12:06:05;3.07;64.66
67942;SHT31;54731;42.600;23.476;2024-01-16T12:08:30;3.05;64.79
67942;SHT31;54731;42.600;23.476;2024-01-16T12:10:55;3.07;65.36
67942;SHT31;54731;42.600;23.476;2024-01-16T12:13:20;3.05;64.98
67942;SHT31;54731;42.600;23.476;2024-01-16T12:15:46;3.11;65.18
67942;SHT31;54731;42.600;23.476;2024-01-16T12:18:18;3.07;65.12
67942;SHT31;54731;42.600;23.476;2024-01-16T12:20:44;3.10;65.44
67942;SHT31;54731;42.600;23.476;2024-01-16T12:23:09;3.04;65.44
67942;SHT31;54731;42.600;23.476;2024-01-16T12:25:36;3.15;65.82
67942;SHT31;54731;42.600;23.476;2024-01-16T12:28:04;3.08;64.99
67942;SHT31;54731;42.600;23.476;2024-01-16T12:30:33;3.05;66.31
67942;SHT31;54731;42.600;23.476;2024-01-16T12:33:09;3.08;65.80
67942;SHT31;54731;42.600;23.476;2024-01-16T12:35:39;3.11;66.64
67942;SHT31;54731;42.600;23.476;2024-01-16T12:38:07;3.10;66.02
67942;SHT31;54731;42.600;23.476;2024-01-16T12:40:32;2.99;65.74
67942;SHT31;54731;42.600;23.476;2024-01-16T12:42:58;3.04;66.68
67942;SHT31;54731;42.600;23.476;2024-01-16T12:45:23;3.03;66.60
67942;SHT31;54731;42.600;23.476;2024-01-16T12:47:53;3.15;66.64
67942;SHT31;54731;42.600;23.476;2024-01-16T12:50:22;3.15;66.02
67942;SHT31;54731;42.600;23.476;2024-01-16T12:52:49;2.94;66.35
67942;SHT31;54731;42.600;23.476;2024-01-16T12:55:14;2.90;66.47
67942;SHT31;54731;42.600;23.476;2024-01-16T12:57:40;2.69;65.61
67942;SHT31;54731;42.600;23.476;2024-01-16T13:00:23;2.79;66.31
67942;SHT31;54731;42.600;23.476;2024-01-16T13:02:50;2.86;66.08
67942;SHT31;54731;42.600;23.476;2024-01-16T13:05:15;2.96;65.34
67942;SHT31;54731;42.600;23.476;2024-01-16T13:07:41;2.89;65.43
67942;SHT31;54731;42.600;23.476;2024-01-16T13:10:08;2.99;65.53
67942;SHT31;54731;42.600;23.476;2024-01-16T13:12:33;2.94;65.51
67942;SHT31;54731;42.600;23.476;2024-01-16T13:14:58;2.99;65.28
67942;SHT31;54731;42.600;23.476;2024-01-16T13:17:24;2.97;64.50
67942;SHT31;54731;42.600;23.476;2024-01-16T13:19:49;3.04;64.02
67942;SHT31;54731;42.600;23.476;2024-01-16T13:22:14;2.94;65.08
67942;SHT31;54731;42.600;23.476;2024-01-16T13:24:39;2.91;65.68
67942;SHT31;54731;42.600;23.476;2024-01-16T13:27:05;3.03;64.69
67942;SHT31;54731;42.600;23.476;2024-01-16T13:29:30;3.03;65.07
67942;SHT31;54731;42.600;23.476;2024-01-16T13:31:55;3.07;64.95
67942;SHT31;54731;42.600;23.476;2024-01-16T13:34:21;2.77;65.25
67942;SHT31;54731;42.600;23.476;2024-01-16T13:36:48;2.79;65.77
67942;SHT31;54731;42.600;23.476;2024-01-16T13:39:14;2.94;64.91
67942;SHT31;54731;42.600;23.476;2024-01-16T13:41:40;2.79;65.12
67942;SHT31;54731;42.600;23.476;2024-01-16T13:44:05;2.70;65.93
67942;SHT31;54731;42.600;23.476;2024-01-16T13:46:30;2.70;65.62
67942;SHT31;54731;42.600;23.476;2024-01-16T13:48:56;2.75;66.05
67942;SHT31;54731;42.600;23.476;2024-01-16T13:51:21;2.75;66.12
67942;SHT31;54731;42.600;23.476;2024-01-16T13:53:46;2.73;65.81
67942;SHT31;54731;42.600;23.476;2024-01-16T13:56:12;2.66;66.23
67942;SHT31;54731;42.600;23.476;2024-01-16T13:58:37;2.72;66.01
67942;SHT31;54731;42.600;23.476;2024-01-16T14:01:02;2.60;67.06
67942;SHT31;54731;42.600;23.476;2024-01-16T14:03:28;2.61;66.82
67942;SHT31;54731;42.600;23.476;2024-01-16T14:05:53;2.64;66.84
67942;SHT31;54731;42.600;23.476;2024-01-16T14:08:18;2.61;66.72
67942;SHT31;54731;42.600;23.476;2024-01-16T14:10:44;2.49;67.34
67942;SHT31;54731;42.600;23.476;2024-01-16T14:13:09;2.50;67.03
67942;SHT31;54731;42.600;23.476;2024-01-16T14:15:34;2.49;67.54
67942;SHT31;54731;42.600;23.476;2024-01-16T14:17:59;2.45;67.71
67942;SHT31;54731;42.600;23.476;2024-01-16T14:20:25;2.40;67.78
67942;SHT31;54731;42.600;23.476;2024-01-16T14:22:50;2.36;67.83
67942;SHT31;54731;42.600;23.476;2024-01-16T14:25:16;2.32;67.81
67942;SHT31;54731;42.600;23.476;2024-01-16T14:27:42;2.24;68.14
67942;SHT31;54731;42.600;23.476;2024-01-16T14:30:10;2.12;68.05
67942;SHT31;54731;42.600;23.476;2024-01-16T14:32:37;2.08;68.47
67942;SHT31;54731;42.600;23.476;2024-01-16T14:35:04;2.09;68.58
67942;SHT31;54731;42.600;23.476;2024-01-16T14:37:30;2.04;68.85
67942;SHT31;54731;42.600;23.476;2024-01-16T14:39:56;1.98;68.56
67942;SHT31;54731;42.600;23.476;2024-01-16T14:42:21;2.01;68.51
67942;SHT31;54731;42.600;23.476;2024-01-16T14:44:46;1.99;68.64
67942;SHT31;54731;42.600;23.476;2024-01-16T14:47:11;1.95;68.51
67942;SHT31;54731;42.600;23.476;2024-01-16T14:49:37;1.91;68.57
67942;SHT31;54731;42.600;23.476;2024-01-16T14:52:02;1.81;69.11
67942;SHT31;54731;42.600;23.476;2024-01-16T14:54:28;1.81;69.13
67942;SHT31;54731;42.600;23.476;2024-01-16T14:56:53;1.78;69.44
67942;SHT31;54731;42.600;23.476;2024-01-16T14:59:18;1.73;69.75
67942;SHT31;54731;42.600;23.476;2024-01-16T15:01:44;1.70;69.82
67942;SHT31;54731;42.600;23.476;2024-01-16T15:04:09;1.65;69.72
67942;SHT31;54731;42.600;23.476;2024-01-16T15:06:34;1.68;69.76
67942;SHT31;54731;42.600;23.476;2024-01-16T15:09:00;1.70;69.39
67942;SHT31;54731;42.600;23.476;2024-01-16T15:11:25;1.63;69.53
67942;SHT31;54731;42.600;23.476;2024-01-16T15:13:50;1.64;69.17
67942;SHT31;54731;42.600;23.476;2024-01-16T15:16:15;1.60;69.31
67942;SHT31;54731;42.600;23.476;2024-01-16T15:18:42;1.55;69.72
67942;SHT31;54731;42.600;23.476;2024-01-16T15:21:07;1.53;69.92
67942;SHT31;54731;42.600;23.476;2024-01-16T15:23:33;1.50;69.82
67942;SHT31;54731;42.600;23.476;2024-01-16T15:25:58;1.47;69.94
67942;SHT31;54731;42.600;23.476;2024-01-16T15:28:23;1.41;70.25
67942;SHT31;54731;42.600;23.476;2024-01-16T15:30:49;1.37;70.26
67942;SHT31;54731;42.600;23.476;2024-01-16T15:33:14;1.29;70.32
67942;SHT31;54731;42.600;23.476;2024-01-16T15:35:39;1.27;70.34